sensor_id;sensor_type;location;lat;lon;timestamp;P1;durP1;ratioP1;P2;durP2;ratioP2
7432;SDS011;32233;49.500;7.764;2022-07-23T00:00:57;14.17;;;12.77;;
7432;SDS011;32233;49.500;7.764;2022-07-23T00:03:24;13.20;;;11.77;;
7432;SDS011;32233;49.500;7.764;2022-07-23T00:05:51;13.67;;;11.73;;
7432;SDS011;32233;49.500;7.764;2022-07-23T00:08:17;13.03;;;11.67;;
7432;SDS011;32233;49.500;7.764;2022-07-23T00:10:43;15.77;;;12.20;;
7432;SDS011;32233;49.500;7.764;2022-07-23T00:13:10;13.00;;;11.73;;
7432;SDS011;32233;49.500;7.764;2022-07-23T00:15:37;13.50;;;11.47;;
7432;SDS011;32233;49.500;7.764;2022-07-23T00:18:03;13.30;;;12.10;;
7432;SDS011;32233;49.500;7.764;2022-07-23T00:20:30;13.83;;;12.43;;
7432;SDS011;32233;49.500;7.764;2022-07-23T00:22:56;12.87;;;11.63;;
7432;SDS011;32233;49.500;7.764;2022-07-23T00:25:23;13.63;;;11.77;;
7432;SDS011;32233;49.500;7.764;2022-07-23T00:27:54;12.90;;;11.57;;
7432;SDS011;32233;49.500;7.764;2022-07-23T00:30:21;12.37;;;10.87;;
7432;SDS011;32233;49.500;7.764;2022-07-23T00:35:21;13.27;;;9.97;;
7432;SDS011;32233;49.500;7.764;2022-07-23T00:37:48;11.23;;;10.03;;
7432;SDS011;32233;49.500;7.764;2022-07-23T00:40:15;11.67;;;10.47;;
7432;SDS011;32233;49.500;7.764;2022-07-23T00:42:41;10.10;;;9.20;;
7432;SDS011;32233;49.500;7.764;2022-07-23T00:45:08;11.17;;;10.07;;
7432;SDS011;32233;49.500;7.764;2022-07-23T00:47:35;11.00;;;9.90;;
7432;SDS011;32233;49.500;7.764;2022-07-23T00:50:05;11.33;;;10.23;;
7432;SDS011;32233;49.500;7.764;2022-07-23T00:52:32;14.23;;;11.53;;
7432;SDS011;32233;49.500;7.764;2022-07-23T00:54:59;13.97;;;10.97;;
7432;SDS011;32233;49.500;7.764;2022-07-23T00:57:25;12.37;;;11.17;;
7432;SDS011;32233;49.500;7.764;2022-07-23T00:59:54;12.57;;;11.23;;
7432;SDS011;32233;49.500;7.764;2022-07-23T01:02:20;13.10;;;11.70;;
7432;SDS011;32233;49.500;7.764;2022-07-23T01:04:47;13.97;;;12.23;;
7432;SDS011;32233;49.500;7.764;2022-07-23T01:07:13;11.67;;;10.50;;
7432;SDS011;32233;49.500;7.764;2022-07-23T01:09:40;11.77;;;10.40;;
7432;SDS011;32233;49.500;7.764;2022-07-23T01:12:06;11.17;;;10.07;;
7432;SDS011;32233;49.500;7.764;2022-07-23T01:14:33;13.50;;;10.63;;
7432;SDS011;32233;49.500;7.764;2022-07-23T01:17:00;11.50;;;10.10;;
7432;SDS011;32233;49.500;7.764;2022-07-23T01:19:27;10.57;;;8.97;;
7432;SDS011;32233;49.500;7.764;2022-07-23T01:21:53;10.03;;;8.93;;
7432;SDS011;32233;49.500;7.764;2022-07-23T01:24:22;12.17;;;9.07;;
7432;SDS011;32233;49.500;7.764;2022-07-23T01:26:59;12.70;;;9.00;;
7432;SDS011;32233;49.500;7.764;2022-07-23T01:29:25;9.67;;;8.70;;
7432;SDS011;32233;49.500;7.764;2022-07-23T01:31:53;10.07;;;9.07;;
7432;SDS011;32233;49.500;7.764;2022-07-23T01:34:20;12.60;;;9.10;;
7432;SDS011;32233;49.500;7.764;2022-07-23T01:36:46;10.73;;;9.63;;
7432;SDS011;32233;49.500;7.764;2022-07-23T01:39:15;13.53;;;9.77;;
7432;SDS011;32233;49.500;7.764;2022-07-23T01:41:42;9.73;;;8.63;;
7432;SDS011;32233;49.500;7.764;2022-07-23T01:44:11;11.70;;;9.27;;
7432;SDS011;32233;49.500;7.764;2022-07-23T01:46:39;12.57;;;9.57;;
7432;SDS011;32233;49.500;7.764;2022-07-23T01:49:05;11.67;;;9.23;;
7432;SDS011;32233;49.500;7.764;2022-07-23T01:51:51;12.10;;;9.87;;
7432;SDS011;32233;49.500;7.764;2022-07-23T01:54:47;10.97;;;9.87;;
7432;SDS011;32233;49.500;7.764;2022-07-23T01:57:13;10.63;;;9.53;;
7432;SDS011;32233;49.500;7.764;2022-07-23T01:59:40;9.60;;;8.37;;
7432;SDS011;32233;49.500;7.764;2022-07-23T02:02:08;12.43;;;8.60;;
7432;SDS011;32233;49.500;7.764;2022-07-23T02:04:35;10.80;;;9.37;;
7432;SDS011;32233;49.500;7.764;2022-07-23T02:07:03;11.47;;;9.47;;
7432;SDS011;32233;49.500;7.764;2022-07-23T02:09:30;11.37;;;9.93;;
7432;SDS011;32233;49.500;7.764;2022-07-23T02:11:56;10.93;;;9.37;;
7432;SDS011;32233;49.500;7.764;2022-07-23T02:14:24;12.03;;;9.83;;
7432;SDS011;32233;49.500;7.764;2022-07-23T02:16:51;10.93;;;9.63;;
7432;SDS011;32233;49.500;7.764;2022-07-23T02:19:17;10.63;;;9.53;;
7432;SDS011;32233;49.500;7.764;2022-07-23T02:21:44;11.00;;;9.63;;
7432;SDS011;32233;49.500;7.764;2022-07-23T02:24:10;11.20;;;10.00;;
7432;SDS011;32233;49.500;7.764;2022-07-23T02:26:39;10.53;;;9.43;;
7432;SDS011;32233;49.500;7.764;2022-07-23T02:29:06;11.57;;;9.73;;
7432;SDS011;32233;49.500;7.764;2022-07-23T02:31:32;11.20;;;9.53;;
7432;SDS011;32233;49.500;7.764;2022-07-23T02:34:01;11.07;;;10.00;;
7432;SDS011;32233;49.500;7.764;2022-07-23T02:36:27;11.47;;;10.30;;
7432;SDS011;32233;49.500;7.764;2022-07-23T02:38:55;11.47;;;10.10;;
7432;SDS011;32233;49.500;7.764;2022-07-23T02:41:21;12.20;;;10.90;;
7432;SDS011;32233;49.500;7.764;2022-07-23T02:43:48;12.53;;;10.37;;
7432;SDS011;32233;49.500;7.764;2022-07-23T02:46:14;11.67;;;10.20;;
7432;SDS011;32233;49.500;7.764;2022-07-23T02:48:42;11.53;;;9.97;;
7432;SDS011;32233;49.500;7.764;2022-07-23T02:51:08;11.67;;;10.50;;
7432;SDS011;32233;49.500;7.764;2022-07-23T02:53:44;13.07;;;10.90;;
7432;SDS011;32233;49.500;7.764;2022-07-23T02:56:10;12.47;;;10.30;;
7432;SDS011;32233;49.500;7.764;2022-07-23T02:58:37;13.70;;;10.33;;
7432;SDS011;32233;49.500;7.764;2022-07-23T03:01:03;11.37;;;10.13;;
7432;SDS011;32233;49.500;7.764;2022-07-23T03:03:30;12.07;;;10.27;;
7432;SDS011;32233;49.500;7.764;2022-07-23T03:05:57;10.80;;;9.53;;
7432;SDS011;32233;49.500;7.764;2022-07-23T03:08:23;12.50;;;10.40;;
7432;SDS011;32233;49.500;7.764;2022-07-23T03:10:51;11.07;;;9.90;;
7432;SDS011;32233;49.500;7.764;2022-07-23T03:13:18;11.33;;;10.07;;
7432;SDS011;32233;49.500;7.764;2022-07-23T03:15:44;11.07;;;9.97;;
7432;SDS011;32233;49.500;7.764;2022-07-23T03:18:10;11.37;;;10.07;;
7432;SDS011;32233;49.500;7.764;2022-07-23T03:20:37;11.87;;;9.63;;
7432;SDS011;32233;49.500;7.764;2022-07-23T03:23:03;11.37;;;9.77;;
7432;SDS011;32233;49.500;7.764;2022-07-23T03:25:30;13.43;;;9.47;;
7432;SDS011;32233;49.500;7.764;2022-07-23T03:27:57;11.47;;;10.10;;
7432;SDS011;32233;49.500;7.764;2022-07-23T03:30:25;11.03;;;9.83;;
7432;SDS011;32233;49.500;7.764;2022-07-23T03:32:52;11.07;;;9.93;;
7432;SDS011;32233;49.500;7.764;2022-07-23T03:35:18;11.03;;;9.43;;
7432;SDS011;32233;49.500;7.764;2022-07-23T03:37:59;10.50;;;9.00;;
7432;SDS011;32233;49.500;7.764;2022-07-23T03:40:26;10.53;;;9.53;;
7432;SDS011;32233;49.500;7.764;2022-07-23T03:42:52;10.50;;;9.20;;
7432;SDS011;32233;49.500;7.764;2022-07-23T03:45:19;11.90;;;10.23;;
7432;SDS011;32233;49.500;7.764;2022-07-23T03:47:45;12.80;;;10.10;;
7432;SDS011;32233;49.500;7.764;2022-07-23T03:50:13;12.13;;;10.33;;
7432;SDS011;32233;49.500;7.764;2022-07-23T03:52:40;10.97;;;9.87;;
7432;SDS011;32233;49.500;7.764;2022-07-23T03:55:07;11.63;;;9.97;;
7432;SDS011;32233;49.500;7.764;2022-07-23T03:57:35;10.57;;;9.47;;
7432;SDS011;32233;49.500;7.764;2022-07-23T04:00:03;12.07;;;9.77;;
7432;SDS011;32233;49.500;7.764;2022-07-23T04:02:38;11.50;;;10.30;;
7432;SDS011;32233;49.500;7.764;2022-07-23T04:05:05;11.57;;;10.27;;
7432;SDS011;32233;49.500;7.764;2022-07-23T04:07:32;12.97;;;10.23;;
7432;SDS011;32233;49.500;7.764;2022-07-23T04:09:59;12.27;;;11.07;;
7432;SDS011;32233;49.500;7.764;2022-07-23T04:12:26;10.97;;;9.87;;
7432;SDS011;32233;49.500;7.764;2022-07-23T04:14:53;12.50;;;9.97;;
7432;SDS011;32233;49.500;7.764;2022-07-23T04:17:20;12.23;;;10.53;;
7432;SDS011;32233;49.500;7.764;2022-07-23T04:19:46;12.93;;;10.10;;
7432;SDS011;32233;49.500;7.764;2022-07-23T04:22:16;11.40;;;10.20;;
7432;SDS011;32233;49.500;7.764;2022-07-23T04:24:43;11.10;;;10.10;;
7432;SDS011;32233;49.500;7.764;2022-07-23T04:27:09;11.00;;;9.83;;
7432;SDS011;32233;49.500;7.764;2022-07-23T04:29:36;11.40;;;9.97;;
7432;SDS011;32233;49.500;7.764;2022-07-23T04:32:02;13.33;;;10.73;;
7432;SDS011;32233;49.500;7.764;2022-07-23T04:34:29;11.63;;;9.77;;
7432;SDS011;32233;49.500;7.764;2022-07-23T04:36:55;12.40;;;11.00;;
7432;SDS011;32233;49.500;7.764;2022-07-23T04:39:22;11.67;;;10.47;;
7432;SDS011;32233;49.500;7.764;2022-07-23T04:41:48;13.77;;;11.20;;
7432;SDS011;32233;49.500;7.764;2022-07-23T04:44:15;11.03;;;10.00;;
7432;SDS011;32233;49.500;7.764;2022-07-23T04:46:41;12.67;;;10.37;;
7432;SDS011;32233;49.500;7.764;2022-07-23T04:49:08;11.47;;;10.20;;
7432;SDS011;32233;49.500;7.764;2022-07-23T04:51:35;11.40;;;10.20;;
7432;SDS011;32233;49.500;7.764;2022-07-23T04:54:01;11.60;;;10.17;;
7432;SDS011;32233;49.500;7.764;2022-07-23T04:56:28;11.63;;;10.33;;
7432;SDS011;32233;49.500;7.764;2022-07-23T04:58:54;12.03;;;10.83;;
7432;SDS011;32233;49.500;7.764;2022-07-23T05:01:21;11.50;;;10.30;;
7432;SDS011;32233;49.500;7.764;2022-07-23T05:03:48;14.47;;;11.40;;
7432;SDS011;32233;49.500;7.764;2022-07-23T05:06:15;12.23;;;10.67;;
7432;SDS011;32233;49.500;7.764;2022-07-23T05:08:41;12.27;;;10.50;;
7432;SDS011;32233;49.500;7.764;2022-07-23T05:11:09;14.90;;;10.70;;
7432;SDS011;32233;49.500;7.764;2022-07-23T05:13:36;12.20;;;10.47;;
7432;SDS011;32233;49.500;7.764;2022-07-23T05:16:06;12.67;;;10.87;;
7432;SDS011;32233;49.500;7.764;2022-07-23T05:18:32;12.10;;;10.80;;
7432;SDS011;32233;49.500;7.764;2022-07-23T05:20:59;11.70;;;10.47;;
7432;SDS011;32233;49.500;7.764;2022-07-23T05:23:25;12.60;;;10.97;;
7432;SDS011;32233;49.500;7.764;2022-07-23T05:25:52;12.23;;;10.87;;
7432;SDS011;32233;49.500;7.764;2022-07-23T05:28:18;11.27;;;10.07;;
7432;SDS011;32233;49.500;7.764;2022-07-23T05:30:49;11.40;;;10.20;;
7432;SDS011;32233;49.500;7.764;2022-07-23T05:33:20;11.53;;;10.33;;
7432;SDS011;32233;49.500;7.764;2022-07-23T05:35:47;11.07;;;9.70;;
7432;SDS011;32233;49.500;7.764;2022-07-23T05:38:27;10.83;;;9.53;;
7432;SDS011;32233;49.500;7.764;2022-07-23T05:40:57;11.80;;;10.10;;
7432;SDS011;32233;49.500;7.764;2022-07-23T05:43:23;10.73;;;9.63;;
7432;SDS011;32233;49.500;7.764;2022-07-23T05:45:50;13.23;;;10.60;;
7432;SDS011;32233;49.500;7.764;2022-07-23T05:48:17;12.20;;;9.80;;
7432;SDS011;32233;49.500;7.764;2022-07-23T05:50:56;14.07;;;10.10;;
7432;SDS011;32233;49.500;7.764;2022-07-23T05:53:30;10.63;;;9.47;;
7432;SDS011;32233;49.500;7.764;2022-07-23T05:55:59;11.03;;;9.93;;
7432;SDS011;32233;49.500;7.764;2022-07-23T05:58:26;10.33;;;9.27;;
7432;SDS011;32233;49.500;7.764;2022-07-23T06:00:52;10.60;;;9.50;;
7432;SDS011;32233;49.500;7.764;2022-07-23T06:03:19;10.43;;;9.37;;
7432;SDS011;32233;49.500;7.764;2022-07-23T06:05:46;11.50;;;9.40;;
7432;SDS011;32233;49.500;7.764;2022-07-23T06:08:12;11.07;;;9.97;;
7432;SDS011;32233;49.500;7.764;2022-07-23T06:10:39;11.50;;;9.83;;
7432;SDS011;32233;49.500;7.764;2022-07-23T06:13:05;13.03;;;9.73;;
7432;SDS011;32233;49.500;7.764;2022-07-23T06:15:32;11.43;;;10.10;;
7432;SDS011;32233;49.500;7.764;2022-07-23T06:17:59;12.80;;;11.17;;
7432;SDS011;32233;49.500;7.764;2022-07-23T06:20:25;13.07;;;11.67;;
7432;SDS011;32233;49.500;7.764;2022-07-23T06:22:52;12.67;;;11.30;;
7432;SDS011;32233;49.500;7.764;2022-07-23T06:25:19;11.77;;;10.63;;
7432;SDS011;32233;49.500;7.764;2022-07-23T06:27:47;12.67;;;10.13;;
7432;SDS011;32233;49.500;7.764;2022-07-23T06:30:14;12.80;;;11.50;;
7432;SDS011;32233;49.500;7.764;2022-07-23T06:32:43;13.00;;;11.30;;
7432;SDS011;32233;49.500;7.764;2022-07-23T06:35:10;11.33;;;10.23;;
7432;SDS011;32233;49.500;7.764;2022-07-23T06:37:36;11.63;;;10.43;;
7432;SDS011;32233;49.500;7.764;2022-07-23T06:40:03;11.63;;;10.37;;
7432;SDS011;32233;49.500;7.764;2022-07-23T06:42:34;12.17;;;10.77;;
7432;SDS011;32233;49.500;7.764;2022-07-23T06:45:03;12.03;;;9.93;;
7432;SDS011;32233;49.500;7.764;2022-07-23T06:47:30;11.13;;;9.70;;
7432;SDS011;32233;49.500;7.764;2022-07-23T06:49:56;11.77;;;9.97;;
7432;SDS011;32233;49.500;7.764;2022-07-23T06:52:24;11.03;;;9.93;;
7432;SDS011;32233;49.500;7.764;2022-07-23T06:54:52;10.67;;;9.60;;
7432;SDS011;32233;49.500;7.764;2022-07-23T06:57:19;11.13;;;10.00;;
7432;SDS011;32233;49.500;7.764;2022-07-23T06:59:45;11.07;;;9.93;;
7432;SDS011;32233;49.500;7.764;2022-07-23T07:02:15;11.93;;;10.73;;
7432;SDS011;32233;49.500;7.764;2022-07-23T07:04:41;10.97;;;9.87;;
7432;SDS011;32233;49.500;7.764;2022-07-23T07:07:08;12.40;;;11.10;;
7432;SDS011;32233;49.500;7.764;2022-07-23T07:09:34;12.17;;;10.50;;
7432;SDS011;32233;49.500;7.764;2022-07-23T07:12:01;11.27;;;9.80;;
7432;SDS011;32233;49.500;7.764;2022-07-23T07:14:27;13.00;;;10.27;;
7432;SDS011;32233;49.500;7.764;2022-07-23T07:16:54;12.37;;;10.23;;
7432;SDS011;32233;49.500;7.764;2022-07-23T07:19:20;12.77;;;10.30;;
7432;SDS011;32233;49.500;7.764;2022-07-23T07:21:47;11.80;;;10.07;;
7432;SDS011;32233;49.500;7.764;2022-07-23T07:24:13;10.60;;;9.60;;
7432;SDS011;32233;49.500;7.764;2022-07-23T07:26:40;11.57;;;10.37;;
7432;SDS011;32233;49.500;7.764;2022-07-23T07:29:06;11.33;;;10.13;;
7432;SDS011;32233;49.500;7.764;2022-07-23T07:31:33;11.13;;;9.87;;
7432;SDS011;32233;49.500;7.764;2022-07-23T07:33:59;10.67;;;9.67;;
7432;SDS011;32233;49.500;7.764;2022-07-23T07:36:26;11.80;;;10.03;;
7432;SDS011;32233;49.500;7.764;2022-07-23T07:38:52;10.90;;;9.80;;
7432;SDS011;32233;49.500;7.764;2022-07-23T07:41:19;10.87;;;9.87;;
7432;SDS011;32233;49.500;7.764;2022-07-23T07:43:49;10.77;;;9.67;;
7432;SDS011;32233;49.500;7.764;2022-07-23T07:46:16;10.97;;;9.50;;
7432;SDS011;32233;49.500;7.764;2022-07-23T07:48:42;10.77;;;9.77;;
7432;SDS011;32233;49.500;7.764;2022-07-23T07:51:09;10.37;;;9.37;;
7432;SDS011;32233;49.500;7.764;2022-07-23T07:53:35;10.20;;;9.03;;
7432;SDS011;32233;49.500;7.764;2022-07-23T07:56:03;9.93;;;8.93;;
7432;SDS011;32233;49.500;7.764;2022-07-23T07:58:29;11.57;;;10.37;;
7432;SDS011;32233;49.500;7.764;2022-07-23T08:00:57;10.47;;;9.40;;
7432;SDS011;32233;49.500;7.764;2022-07-23T08:03:23;10.40;;;9.40;;
7432;SDS011;32233;49.500;7.764;2022-07-23T08:05:50;10.73;;;9.73;;
7432;SDS011;32233;49.500;7.764;2022-07-23T08:08:16;9.10;;;8.30;;
7432;SDS011;32233;49.500;7.764;2022-07-23T08:10:43;9.87;;;8.87;;
7432;SDS011;32233;49.500;7.764;2022-07-23T08:13:12;10.60;;;9.13;;
7432;SDS011;32233;49.500;7.764;2022-07-23T08:15:38;10.87;;;9.30;;
7432;SDS011;32233;49.500;7.764;2022-07-23T08:18:05;10.37;;;9.37;;
7432;SDS011;32233;49.500;7.764;2022-07-23T08:20:31;9.33;;;8.53;;
7432;SDS011;32233;49.500;7.764;2022-07-23T08:22:59;9.97;;;8.97;;
7432;SDS011;32233;49.500;7.764;2022-07-23T08:25:30;9.97;;;9.07;;
7432;SDS011;32233;49.500;7.764;2022-07-23T08:27:57;9.70;;;8.80;;
7432;SDS011;32233;49.500;7.764;2022-07-23T08:30:24;9.83;;;8.93;;
7432;SDS011;32233;49.500;7.764;2022-07-23T08:32:55;9.83;;;8.90;;
7432;SDS011;32233;49.500;7.764;2022-07-23T08:35:23;9.70;;;8.70;;
7432;SDS011;32233;49.500;7.764;2022-07-23T08:37:50;9.90;;;9.00;;
7432;SDS011;32233;49.500;7.764;2022-07-23T08:40:16;11.07;;;9.87;;
7432;SDS011;32233;49.500;7.764;2022-07-23T08:42:43;11.40;;;9.23;;
7432;SDS011;32233;49.500;7.764;2022-07-23T08:45:10;10.33;;;9.40;;
7432;SDS011;32233;49.500;7.764;2022-07-23T08:47:37;9.70;;;8.70;;
7432;SDS011;32233;49.500;7.764;2022-07-23T09:04:07;10.90;;;9.30;;
7432;SDS011;32233;49.500;7.764;2022-07-23T09:06:34;8.90;;;8.10;;
7432;SDS011;32233;49.500;7.764;2022-07-23T09:09:19;9.40;;;8.60;;
7432;SDS011;32233;49.500;7.764;2022-07-23T09:11:46;9.87;;;9.00;;
7432;SDS011;32233;49.500;7.764;2022-07-23T09:14:13;9.27;;;8.47;;
7432;SDS011;32233;49.500;7.764;2022-07-23T09:16:39;9.33;;;8.60;;
7432;SDS011;32233;49.500;7.764;2022-07-23T09:19:06;9.57;;;8.67;;
7432;SDS011;32233;49.500;7.764;2022-07-23T09:21:36;11.47;;;9.33;;
7432;SDS011;32233;49.500;7.764;2022-07-23T09:24:07;9.93;;;9.13;;
7432;SDS011;32233;49.500;7.764;2022-07-23T09:29:05;9.53;;;8.63;;
7432;SDS011;32233;49.500;7.764;2022-07-23T09:31:41;10.00;;;9.10;;
7432;SDS011;32233;49.500;7.764;2022-07-23T09:34:09;10.10;;;9.10;;
7432;SDS011;32233;49.500;7.764;2022-07-23T09:36:36;9.70;;;8.80;;
7432;SDS011;32233;49.500;7.764;2022-07-23T09:39:03;17.73;;;9.53;;
7432;SDS011;32233;49.500;7.764;2022-07-23T09:41:36;10.30;;;9.40;;
7432;SDS011;32233;49.500;7.764;2022-07-23T09:44:10;8.53;;;7.83;;
7432;SDS011;32233;49.500;7.764;2022-07-23T09:46:37;8.67;;;7.87;;
7432;SDS011;32233;49.500;7.764;2022-07-23T09:49:16;9.23;;;8.40;;
7432;SDS011;32233;49.500;7.764;2022-07-23T09:51:43;9.60;;;8.70;;
7432;SDS011;32233;49.500;7.764;2022-07-23T09:54:20;10.50;;;9.50;;
7432;SDS011;32233;49.500;7.764;2022-07-23T09:56:46;9.57;;;8.67;;
7432;SDS011;32233;49.500;7.764;2022-07-23T09:59:14;9.57;;;8.77;;
7432;SDS011;32233;49.500;7.764;2022-07-23T10:01:43;9.40;;;8.43;;
7432;SDS011;32233;49.500;7.764;2022-07-23T10:04:10;9.50;;;8.60;;
7432;SDS011;32233;49.500;7.764;2022-07-23T10:06:57;9.80;;;8.80;;
7432;SDS011;32233;49.500;7.764;2022-07-23T10:09:43;9.10;;;8.33;;
7432;SDS011;32233;49.500;7.764;2022-07-23T10:12:27;9.23;;;8.33;;
7432;SDS011;32233;49.500;7.764;2022-07-23T10:15:06;9.67;;;8.80;;
7432;SDS011;32233;49.500;7.764;2022-07-23T10:17:34;8.47;;;7.77;;
7432;SDS011;32233;49.500;7.764;2022-07-23T10:20:00;8.67;;;7.87;;
7432;SDS011;32233;49.500;7.764;2022-07-23T10:22:33;10.10;;;9.00;;
7432;SDS011;32233;49.500;7.764;2022-07-23T10:28:04;9.37;;;8.50;;
7432;SDS011;32233;49.500;7.764;2022-07-23T10:35:46;8.90;;;8.00;;
7432;SDS011;32233;49.500;7.764;2022-07-23T10:38:15;8.83;;;8.03;;
7432;SDS011;32233;49.500;7.764;2022-07-23T10:41:03;8.90;;;8.13;;
7432;SDS011;32233;49.500;7.764;2022-07-23T10:43:30;9.10;;;8.30;;
7432;SDS011;32233;49.500;7.764;2022-07-23T10:48:42;8.40;;;7.60;;
7432;SDS011;32233;49.500;7.764;2022-07-23T10:51:10;9.00;;;8.20;;
7432;SDS011;32233;49.500;7.764;2022-07-23T10:56:15;9.07;;;8.20;;
7432;SDS011;32233;49.500;7.764;2022-07-23T10:58:45;9.00;;;8.17;;
7432;SDS011;32233;49.500;7.764;2022-07-23T11:03:57;9.00;;;8.20;;
7432;SDS011;32233;49.500;7.764;2022-07-23T11:17:23;7.77;;;7.10;;
7432;SDS011;32233;49.500;7.764;2022-07-23T11:22:36;7.43;;;6.73;;
7432;SDS011;32233;49.500;7.764;2022-07-23T11:25:04;8.50;;;7.80;;
7432;SDS011;32233;49.500;7.764;2022-07-23T11:27:37;8.03;;;7.43;;
7432;SDS011;32233;49.500;7.764;2022-07-23T11:30:04;8.30;;;7.60;;
7432;SDS011;32233;49.500;7.764;2022-07-23T11:32:33;7.93;;;7.23;;
7432;SDS011;32233;49.500;7.764;2022-07-23T11:35:01;8.30;;;7.50;;
7432;SDS011;32233;49.500;7.764;2022-07-23T11:37:30;9.50;;;8.57;;
7432;SDS011;32233;49.500;7.764;2022-07-23T11:39:58;8.70;;;7.90;;
7432;SDS011;32233;49.500;7.764;2022-07-23T11:42:24;8.77;;;7.97;;
7432;SDS011;32233;49.500;7.764;2022-07-23T11:44:56;8.30;;;7.60;;
7432;SDS011;32233;49.500;7.764;2022-07-23T11:47:23;9.33;;;8.63;;
7432;SDS011;32233;49.500;7.764;2022-07-23T11:49:57;9.37;;;8.57;;
7432;SDS011;32233;49.500;7.764;2022-07-23T11:52:24;8.60;;;7.90;;
7432;SDS011;32233;49.500;7.764;2022-07-23T11:54:58;8.27;;;7.57;;
7432;SDS011;32233;49.500;7.764;2022-07-23T11:57:26;7.65;;;7.05;;
7432;SDS011;32233;49.500;7.764;2022-07-23T11:59:54;8.88;;;8.07;;
7432;SDS011;32233;49.500;7.764;2022-07-23T12:02:21;8.90;;;8.10;;
7432;SDS011;32233;49.500;7.764;2022-07-23T12:04:49;8.00;;;7.40;;
7432;SDS011;32233;49.500;7.764;2022-07-23T12:09:54;7.72;;;7.22;;
7432;SDS011;32233;49.500;7.764;2022-07-23T12:12:21;6.80;;;6.30;;
7432;SDS011;32233;49.500;7.764;2022-07-23T12:14:52;6.97;;;6.53;;
7432;SDS011;32233;49.500;7.764;2022-07-23T12:17:19;7.30;;;6.68;;
7432;SDS011;32233;49.500;7.764;2022-07-23T12:19:45;7.75;;;7.15;;
7432;SDS011;32233;49.500;7.764;2022-07-23T12:22:15;8.32;;;7.68;;
7432;SDS011;32233;49.500;7.764;2022-07-23T12:24:52;7.50;;;6.90;;
7432;SDS011;32233;49.500;7.764;2022-07-23T12:27:20;6.70;;;6.20;;
7432;SDS011;32233;49.500;7.764;2022-07-23T12:29:46;7.50;;;7.00;;
7432;SDS011;32233;49.500;7.764;2022-07-23T12:32:16;7.28;;;6.78;;
7432;SDS011;32233;49.500;7.764;2022-07-23T12:34:43;8.00;;;7.38;;
7432;SDS011;32233;49.500;7.764;2022-07-23T12:37:29;7.60;;;6.70;;
7432;SDS011;32233;49.500;7.764;2022-07-23T12:39:56;7.40;;;6.80;;
7432;SDS011;32233;49.500;7.764;2022-07-23T12:42:22;7.55;;;6.82;;
7432;SDS011;32233;49.500;7.764;2022-07-23T12:45:06;7.80;;;7.10;;
7432;SDS011;32233;49.500;7.764;2022-07-23T12:50:38;7.43;;;6.93;;
7432;SDS011;32233;49.500;7.764;2022-07-23T12:53:09;7.47;;;6.87;;
7432;SDS011;32233;49.500;7.764;2022-07-23T12:55:38;8.13;;;7.40;;
7432;SDS011;32233;49.500;7.764;2022-07-23T12:58:25;7.83;;;7.23;;
7432;SDS011;32233;49.500;7.764;2022-07-23T13:01:01;8.13;;;7.43;;
7432;SDS011;32233;49.500;7.764;2022-07-23T13:03:35;8.03;;;7.37;;
7432;SDS011;32233;49.500;7.764;2022-07-23T13:06:05;7.80;;;7.30;;
7432;SDS011;32233;49.500;7.764;2022-07-23T13:08:32;7.73;;;7.07;;
7432;SDS011;32233;49.500;7.764;2022-07-23T13:10:59;8.23;;;7.53;;
7432;SDS011;32233;49.500;7.764;2022-07-23T13:13:27;6.85;;;6.35;;
7432;SDS011;32233;49.500;7.764;2022-07-23T13:15:56;7.50;;;7.00;;
7432;SDS011;32233;49.500;7.764;2022-07-23T13:18:23;7.57;;;6.95;;
7432;SDS011;32233;49.500;7.764;2022-07-23T13:20:50;7.50;;;6.88;;
7432;SDS011;32233;49.500;7.764;2022-07-23T13:23:17;7.78;;;7.15;;
7432;SDS011;32233;49.500;7.764;2022-07-23T13:25:44;8.90;;;7.20;;
7432;SDS011;32233;49.500;7.764;2022-07-23T13:28:12;7.57;;;6.60;;
7432;SDS011;32233;49.500;7.764;2022-07-23T13:30:38;8.07;;;7.27;;
7432;SDS011;32233;49.500;7.764;2022-07-23T13:33:06;8.03;;;7.43;;
7432;SDS011;32233;49.500;7.764;2022-07-23T13:35:33;7.20;;;6.50;;
7432;SDS011;32233;49.500;7.764;2022-07-23T13:38:00;6.82;;;6.32;;
7432;SDS011;32233;49.500;7.764;2022-07-23T13:40:26;7.63;;;6.93;;
7432;SDS011;32233;49.500;7.764;2022-07-23T13:42:53;9.30;;;7.57;;
7432;SDS011;32233;49.500;7.764;2022-07-23T13:45:19;7.88;;;7.28;;
7432;SDS011;32233;49.500;7.764;2022-07-23T13:47:46;7.90;;;7.20;;
7432;SDS011;32233;49.500;7.764;2022-07-23T13:50:12;7.60;;;6.88;;
7432;SDS011;32233;49.500;7.764;2022-07-23T13:52:39;8.32;;;7.50;;
7432;SDS011;32233;49.500;7.764;2022-07-23T13:55:06;7.90;;;7.30;;
7432;SDS011;32233;49.500;7.764;2022-07-23T13:57:35;7.40;;;6.90;;
7432;SDS011;32233;49.500;7.764;2022-07-23T14:00:02;7.83;;;7.10;;
7432;SDS011;32233;49.500;7.764;2022-07-23T14:02:29;7.53;;;6.93;;
7432;SDS011;32233;49.500;7.764;2022-07-23T14:04:56;7.72;;;7.13;;
7432;SDS011;32233;49.500;7.764;2022-07-23T14:07:23;8.20;;;7.60;;
7432;SDS011;32233;49.500;7.764;2022-07-23T14:09:49;8.33;;;7.67;;
7432;SDS011;32233;49.500;7.764;2022-07-23T14:12:17;8.03;;;7.43;;
7432;SDS011;32233;49.500;7.764;2022-07-23T14:14:44;7.73;;;7.13;;
7432;SDS011;32233;49.500;7.764;2022-07-23T14:17:10;7.67;;;7.07;;
7432;SDS011;32233;49.500;7.764;2022-07-23T14:19:37;7.70;;;7.10;;
7432;SDS011;32233;49.500;7.764;2022-07-23T14:22:03;8.97;;;7.77;;
7432;SDS011;32233;49.500;7.764;2022-07-23T14:24:31;7.97;;;7.37;;
7432;SDS011;32233;49.500;7.764;2022-07-23T14:27:01;7.90;;;7.30;;
7432;SDS011;32233;49.500;7.764;2022-07-23T14:29:28;7.87;;;7.27;;
7432;SDS011;32233;49.500;7.764;2022-07-23T14:31:54;8.27;;;7.57;;
7432;SDS011;32233;49.500;7.764;2022-07-23T14:34:21;9.10;;;8.30;;
7432;SDS011;32233;49.500;7.764;2022-07-23T14:36:53;8.80;;;8.10;;
7432;SDS011;32233;49.500;7.764;2022-07-23T14:39:19;8.47;;;7.67;;
7432;SDS011;32233;49.500;7.764;2022-07-23T14:41:46;8.20;;;7.50;;
7432;SDS011;32233;49.500;7.764;2022-07-23T14:44:13;8.67;;;8.07;;
7432;SDS011;32233;49.500;7.764;2022-07-23T14:46:39;8.73;;;8.13;;
7432;SDS011;32233;49.500;7.764;2022-07-23T14:49:05;8.57;;;7.87;;
7432;SDS011;32233;49.500;7.764;2022-07-23T14:51:33;8.80;;;8.03;;
7432;SDS011;32233;49.500;7.764;2022-07-23T14:54:00;8.87;;;8.17;;
7432;SDS011;32233;49.500;7.764;2022-07-23T14:56:26;8.37;;;7.57;;
7432;SDS011;32233;49.500;7.764;2022-07-23T14:58:52;8.93;;;8.10;;
7432;SDS011;32233;49.500;7.764;2022-07-23T15:01:22;9.17;;;8.13;;
7432;SDS011;32233;49.500;7.764;2022-07-23T15:03:49;9.53;;;8.60;;
7432;SDS011;32233;49.500;7.764;2022-07-23T15:06:16;8.63;;;7.93;;
7432;SDS011;32233;49.500;7.764;2022-07-23T15:08:46;8.90;;;8.20;;
7432;SDS011;32233;49.500;7.764;2022-07-23T15:11:13;9.27;;;8.57;;
7432;SDS011;32233;49.500;7.764;2022-07-23T15:13:40;9.50;;;8.73;;
7432;SDS011;32233;49.500;7.764;2022-07-23T15:16:07;9.10;;;8.30;;
7432;SDS011;32233;49.500;7.764;2022-07-23T15:18:36;9.50;;;8.80;;
7432;SDS011;32233;49.500;7.764;2022-07-23T15:21:03;8.57;;;7.97;;
7432;SDS011;32233;49.500;7.764;2022-07-23T15:23:29;8.00;;;7.40;;
7432;SDS011;32233;49.500;7.764;2022-07-23T15:25:56;7.67;;;7.07;;
7432;SDS011;32233;49.500;7.764;2022-07-23T15:28:23;8.90;;;8.20;;
7432;SDS011;32233;49.500;7.764;2022-07-23T15:30:50;7.53;;;7.03;;
7432;SDS011;32233;49.500;7.764;2022-07-23T15:33:17;7.67;;;7.07;;
7432;SDS011;32233;49.500;7.764;2022-07-23T15:35:47;9.37;;;6.93;;
7432;SDS011;32233;49.500;7.764;2022-07-23T15:38:13;8.10;;;7.23;;
7432;SDS011;32233;49.500;7.764;2022-07-23T15:40:49;7.37;;;6.70;;
7432;SDS011;32233;49.500;7.764;2022-07-23T15:43:15;7.20;;;6.67;;
7432;SDS011;32233;49.500;7.764;2022-07-23T15:45:43;7.03;;;6.33;;
7432;SDS011;32233;49.500;7.764;2022-07-23T15:48:09;7.53;;;6.93;;
7432;SDS011;32233;49.500;7.764;2022-07-23T15:50:36;7.37;;;6.77;;